Latest Weather Observations for Hobart Airport

IDT60901

Issued at 10:01 pm EST Monday 27 April 2015 (issued every 10 minutes, with the page automatically refreshed every 10 minutes)

About weather observations | Map of Hobart area stations | Latest observations for Hobart area | Other Formats
Station Details ID: 094008 Name: HOBART AIRPORT Lat: -42.83 Lon: 147.50 Height: 4.0 m
Data from the previous 72 hours. | See also: Recent months at Hobart Airport
Date/Time
EST
Tmp

°C
App
Tmp
°C
Dew
Point
°C
Rel
Hum
%
Delta-T

°C
Wind Press
QNH
hPa
Press
MSL
hPa
Rain
since
9 am
mm
Dir
 
Spd
km/h
Gust
km/h
Spd
kts
Gust
kts
27/09:30pm 11.7 6.5 2.4 53 4.0 WSW 19 26 10 14 1023.3 1023.3 0.0
27/09:00pm 11.8 7.4 2.5 53 4.0 WSW 15 20 8 11 1023.4 1023.4 0.0
27/08:30pm 11.8 7.7 2.5 53 4.0 WSW 13 19 7 10 1023.0 1023.0 0.0
27/08:00pm 11.5 7.6 3.6 58 3.5 SW 13 22 7 12 1022.7 1022.7 0.0
27/07:30pm 11.4 7.5 3.4 58 3.5 SW 13 17 7 9 1022.2 1022.2 0.0
27/07:00pm 11.4 7.6 3.7 59 3.4 SW 13 17 7 9 1022.0 1022.0 0.0
27/06:30pm 11.7 7.9 4.1 59 3.4 WSW 13 19 7 10 1021.6 1021.6 0.0
27/05:30pm 11.0 8.5 6.5 74 2.1 S 9 13 5 7 1020.9 1020.9 0.0
27/05:00pm 11.6 7.2 6.5 71 2.4 S 19 24 10 13 1020.5 1020.5 0.0
27/04:30pm 12.1 8.1 6.6 69 2.6 SSW 17 24 9 13 1020.4 1020.4 0.0
27/04:00pm 12.5 8.2 6.9 68 2.7 S 19 24 10 13 1020.2 1020.2 0.0
27/03:30pm 12.8 9.0 6.0 63 3.2 SSW 15 20 8 11 1019.8 1019.8 0.0
27/03:00pm 12.8 7.8 6.5 65 3.0 S 22 30 12 16 1019.5 1019.5 0.0
27/02:30pm 13.7 8.4 5.1 56 4.0 S 22 28 12 15 1019.0 1019.0 0.0
27/02:00pm 15.1 9.9 3.4 45 5.3 SW 20 32 11 17 1018.6 1018.6 0.0
27/01:30pm 14.2 9.1 3.0 47 5.0 SW 19 30 10 16 1018.6 1018.6 0.0
27/01:00pm 14.6 9.3 3.0 45 5.2 SW 20 32 11 17 1018.6 1018.6 0.0
27/12:30pm 14.4 8.8 3.3 47 5.0 SW 22 33 12 18 1019.0 1019.0 0.0
27/12:00pm 13.5 7.5 3.5 51 4.5 SSW 24 35 13 19 1019.2 1019.2 0.0
27/11:30am 12.9 8.2 3.2 51 4.3 SW 17 28 9 15 1019.3 1019.3 0.0
27/11:00am 13.0 7.0 3.3 51 4.3 WSW 24 33 13 18 1019.1 1019.1 0.0
27/10:00am 12.4 6.7 3.1 53 4.1 SW 22 32 12 17 1018.8 1018.8 0.0
27/09:30am 12.3 7.9 2.7 52 4.2 SW 15 26 8 14 1018.5 1018.5 0.0
27/09:00am 11.5 7.1 2.7 54 3.8 WSW 15 28 8 15 1018.3 1018.3 0.2
27/08:00am 9.4 6.9 3.9 68 2.4 NNW 6 9 3 5 1017.9 1017.9 0.2
27/07:30am 8.9 6.9 4.4 73 2.0 SW 4 9 2 5 1017.4 1017.4 0.2
27/07:00am 8.6 5.7 4.5 75 1.8 NW 9 13 5 7 1016.9 1016.9 0.2
27/06:30am 9.6 6.1 3.6 66 2.6 WNW 11 15 6 8 1016.7 1016.7 0.2
27/05:30am 9.0 6.4 4.2 72 2.1 WNW 7 11 4 6 1016.3 1016.3 0.2
27/05:00am 8.7 6.1 4.1 73 2.0 NNW 7 13 4 7 1016.1 1016.1 0.2
27/04:30am 9.0 5.7 4.7 74 1.9 NW 11 15 6 8 1015.8 1015.8 0.2
27/04:00am 8.9 5.5 4.1 72 2.1 NNW 11 17 6 9 1015.5 1015.5 0.2
27/03:30am 9.4 6.9 3.7 67 2.5 NNE 6 11 3 6 1015.3 1015.3 0.2
27/03:00am 10.1 5.8 3.2 62 3.0 WSW 15 20 8 11 1015.3 1015.3 0.2
27/02:30am 10.0 6.5 3.3 63 2.9 SW 11 20 6 11 1015.4 1015.4 0.2
27/02:00am 9.8 5.6 3.6 65 2.7 WSW 15 24 8 13 1015.3 1015.3 0.2
27/01:30am 10.2 5.1 3.3 62 3.0 SW 19 28 10 15 1015.4 1015.4 0.2
27/01:00am 10.3 5.9 2.9 60 3.2 SW 15 20 8 11 1015.4 1015.4 0.2
27/12:30am 10.3 5.9 2.9 60 3.2 SW 15 24 8 13 1015.3 1015.3 0.2
 
Date/Time
EST
Tmp

°C
App
Tmp
°C
Dew
Point
°C
Rel
Hum
%
Delta-T

°C
Wind Press
QNH
hPa
Press
MSL
hPa
Rain
since
9 am
mm
Dir
 
Spd
km/h
Gust
km/h
Spd
kts
Gust
kts
26/11:30pm 9.8 5.0 2.8 61 3.0 SW 17 30 9 16 1014.9 1014.9 0.2
26/11:00pm 10.1 4.0 2.6 59 3.2 SW 24 35 13 19 1015.0 1015.0 0.2
26/10:30pm 10.2 4.8 2.7 59 3.2 SW 20 30 11 16 1014.9 1014.9 0.2
26/10:00pm 10.2 5.4 2.7 59 3.2 SW 17 26 9 14 1015.0 1015.0 0.2
26/09:30pm 10.1 4.8 2.9 61 3.1 SW 20 30 11 16 1015.0 1015.0 0.2
26/09:00pm 10.4 4.8 3.3 61 3.1 SW 22 32 12 17 1014.8 1014.8 0.2
26/08:30pm 10.8 5.7 3.2 59 3.3 SSW 19 26 10 14 1014.6 1014.6 0.2
26/08:00pm 10.5 6.8 4.7 67 2.6 SSW 13 22 7 12 1014.2 1014.2 0.2
26/07:30pm 9.9 7.2 5.8 75 1.9 SSW 9 15 5 8 1014.1 1014.1 0.2
26/07:00pm 9.9 7.3 6.2 78 1.7 SSW 9 11 5 6 1013.9 1013.9 0.2
26/06:30pm 10.2 5.7 6.3 77 1.8 SSW 19 30 10 16 1013.5 1013.5 0.2
26/06:00pm 11.8 7.4 5.0 63 3.1 SW 17 26 9 14 1013.0 1013.0 0.2
26/05:30pm 12.2 7.4 4.8 60 3.4 SW 19 26 10 14 1012.5 1012.5 0.2
26/05:00pm 13.0 8.1 4.2 55 4.0 WSW 19 28 10 15 1012.1 1012.1 0.2
26/04:30pm 13.4 8.8 3.7 52 4.4 W 17 22 9 12 1011.8 1011.8 0.2
26/04:00pm 14.3 8.6 2.9 46 5.1 W 22 32 12 17 1011.5 1011.5 0.2
26/03:30pm 13.5 7.4 2.9 48 4.7 WNW 24 32 13 17 1011.4 1011.4 0.2
26/03:00pm 13.9 8.2 2.9 47 4.9 WNW 22 32 12 17 1011.2 1011.2 0.2
26/02:30pm 13.9 8.5 2.3 45 5.1 WNW 20 28 11 15 1011.0 1011.0 0.2
26/02:00pm 14.3 9.9 2.6 45 5.2 W 15 20 8 11 1011.2 1011.2 0.2
26/01:30pm 14.8 10.0 2.5 43 5.5 W 17 28 9 15 1011.2 1011.2 0.2
26/01:00pm 13.8 9.4 2.5 46 5.0 W 15 24 8 13 1011.3 1011.3 0.0
26/12:30pm 13.8 8.6 2.5 46 5.0 NW 19 30 10 16 1011.6 1011.6 0.0
26/12:00pm 13.8 8.9 2.2 45 5.1 WNW 17 24 9 13 1011.9 1011.9 0.0
26/11:30am 12.6 8.8 1.9 48 4.6 NW 11 17 6 9 1012.4 1012.4 0.0
26/11:00am 12.5 8.3 1.5 47 4.7 NNW 13 24 7 13 1012.8 1012.8 0.0
26/10:30am 11.4 7.8 3.2 57 3.6 NNW 11 15 6 8 1013.0 1013.0 0.0
26/10:00am 11.1 8.0 3.4 59 3.4 NNW 9 13 5 7 1013.4 1013.4 0.0
26/09:30am 10.1 6.3 4.0 66 2.7 NW 13 15 7 8 1013.8 1013.8 0.0
26/09:00am 9.4 5.6 3.9 68 2.4 NW 13 17 7 9 1013.8 1013.8 0.0
26/08:30am 9.2 6.0 5.0 75 1.9 NW 11 15 6 8 1013.9 1013.9 0.0
26/08:00am 8.4 6.1 4.8 78 1.6 WNW 6 9 3 5 1013.9 1013.9 0.0
26/07:30am 7.6 5.5 3.9 77 1.6 W 4 9 2 5 1013.6 1013.6 0.0
26/07:00am 7.6 3.7 3.4 75 1.8 WSW 13 20 7 11 1013.3 1013.3 0.0
26/06:30am 6.8 3.8 4.2 83 1.1 W 9 15 5 8 1013.1 1013.1 0.0
26/06:00am 6.9 4.4 4.8 86 0.9 WNW 7 13 4 7 1013.0 1013.0 0.0
26/05:30am 6.8 4.5 5.7 93 0.5 NW 7 9 4 5 1012.8 1012.8 0.0
26/05:00am 7.7 5.1 6.2 90 0.7 NW 9 11 5 6 1012.9 1012.9 0.0
26/04:30am 8.9 6.3 6.3 84 1.2 WNW 9 11 5 6 1012.9 1012.9 0.0
26/04:00am 9.4 6.7 5.7 78 1.7 WNW 9 13 5 7 1012.9 1012.9 0.0
26/03:30am 9.4 6.8 5.9 79 1.6 WNW 9 13 5 7 1013.0 1013.0 0.0
26/03:00am 9.4 7.2 6.1 80 1.5 WNW 7 11 4 6 1013.2 1013.2 0.0
26/02:30am 9.5 6.7 6.9 84 1.2 NW 11 15 6 8 1013.3 1013.3 0.0
26/02:00am 9.6 7.1 6.4 80 1.5 W 9 11 5 6 1013.3 1013.3 0.0
26/01:30am 9.8 6.4 5.9 77 1.8 W 13 15 7 8 1013.4 1013.4 0.0
26/01:00am 9.8 6.6 5.2 73 2.1 SW 11 15 6 8 1013.4 1013.4 0.0
26/12:30am 9.8 6.4 5.9 77 1.8 SW 13 17 7 9 1013.4 1013.4 0.0
26/12:00am 9.9 7.3 6.0 77 1.8 SSW 9 15 5 8 1013.4 1013.4 0.0
 
Date/Time
EST
Tmp

°C
App
Tmp
°C
Dew
Point
°C
Rel
Hum
%
Delta-T

°C
Wind Press
QNH
hPa
Press
MSL
hPa
Rain
since
9 am
mm
Dir
 
Spd
km/h
Gust
km/h
Spd
kts
Gust
kts
25/11:30pm 9.9 6.9 5.8 75 1.9 SSW 11 17 6 9 1013.5 1013.5 0.0
25/11:00pm 9.9 6.9 6.0 77 1.8 SSW 11 15 6 8 1013.6 1013.6 0.0
25/10:30pm 10.0 6.5 5.6 74 2.0 SW 13 19 7 10 1013.6 1013.6 0.0
25/10:00pm 10.0 7.0 6.1 77 1.8 SSW 11 15 6 8 1013.7 1013.7 0.0
25/09:30pm 9.9 7.0 6.7 80 1.5 SW 11 15 6 8 1013.9 1013.9 0.0
25/09:00pm 9.9 6.6 6.5 79 1.6 SW 13 19 7 10 1013.8 1013.8 0.0
25/08:30pm 10.1 6.4 6.5 78 1.7 SW 15 19 8 10 1013.7 1013.7 0.0
25/08:00pm 10.7 7.4 6.2 74 2.1 S 13 19 7 10 1013.4 1013.4 0.0
25/07:30pm 10.6 6.1 6.3 75 2.0 S 19 24 10 13 1013.4 1013.4 0.0
25/07:00pm 10.6 6.0 6.3 75 2.0 S 20 26 11 14 1013.2 1013.2 0.0
25/06:30pm 10.6 6.6 6.6 76 1.9 SSW 17 20 9 11 1013.0 1013.0 0.0
25/06:00pm 10.3 7.0 8.0 86 1.1 SSE 15 19 8 10 1012.6 1012.6 0.0
25/05:30pm 10.5 6.1 7.4 81 1.5 S 20 30 11 16 1012.2 1012.2 0.0
25/05:00pm 11.6 7.5 6.3 70 2.5 S 17 24 9 13 1011.9 1011.9 0.0
25/04:30pm 11.7 8.0 6.4 70 2.5 S 15 24 8 13 1011.7 1011.7 0.0
25/04:00pm 11.9 7.5 6.4 69 2.6 SSE 19 26 10 14 1011.5 1011.5 0.0
25/03:30pm 12.2 7.0 5.3 62 3.2 SSW 22 30 12 16 1011.3 1011.3 0.0
25/03:00pm 12.4 7.8 5.5 63 3.2 S 19 26 10 14 1011.1 1011.1 0.0
25/02:30pm 12.3 8.0 5.2 62 3.3 S 17 22 9 12 1010.9 1010.9 0.0
25/02:00pm 12.5 7.1 4.6 58 3.6 S 22 28 12 15 1010.7 1010.7 0.0
25/01:30pm 12.7 7.4 4.9 59 3.6 S 22 30 12 16 1010.5 1010.5 0.0
25/01:00pm 12.3 7.3 4.7 60 3.5 S 20 28 11 15 1010.6 1010.6 0.0
25/12:30pm 12.5 7.7 5.7 63 3.2 S 20 28 11 15 1010.7 1010.7 0.0
25/12:00pm 12.2 6.6 5.3 62 3.2 S 24 30 13 16 1010.7 1010.7 0.0
25/11:30am 12.9 7.7 5.7 61 3.4 S 22 32 12 17 1010.8 1010.8 0.0
25/11:00am 12.3 7.2 5.9 65 3.0 S 22 32 12 17 1010.8 1010.8 0.0
25/10:30am 12.2 7.2 6.3 67 2.8 SSW 22 32 12 17 1010.8 1010.8 0.0
25/10:00am 11.7 7.2 6.9 72 2.3 SSW 20 33 11 18 1010.6 1010.6 0.0
25/09:30am 11.8 7.5 7.9 77 1.9 SSW 20 33 11 18 1010.3 1010.3 0.0
25/09:00am 11.1 7.0 8.7 85 1.2 S 20 30 11 16 1010.1 1010.1 1.6
25/08:30am 10.6 6.8 9.2 91 0.7 SSW 19 28 10 15 1009.8 1009.8 1.6
25/08:11am 10.7 7.3 9.3 91 0.7 SSW 17 24 9 13 1009.6 1009.6 1.6
25/08:00am 10.7 6.8 9.5 92 0.6 SSW 20 28 11 15 1009.5 1009.5 1.6
25/07:30am 10.7 7.0 9.5 92 0.6 SSW 19 28 10 15 1009.0 1009.0 1.6
25/07:08am 11.1 7.7 9.1 87 1.0 S 17 22 9 12 1008.7 1008.7 1.4
25/07:00am 11.5 8.3 8.3 81 1.6 S 15 22 8 12 1008.5 1008.5 1.4
25/06:30am 11.8 8.8 7.7 76 2.0 SSW 13 17 7 9 1007.9 1007.9 1.4
25/06:00am 11.7 7.9 7.4 75 2.1 SW 17 19 9 10 1007.3 1007.3 1.4
25/05:30am 11.5 8.4 7.4 76 2.0 SSW 13 19 7 10 1007.0 1007.0 1.4
25/05:00am 11.5 8.4 7.4 76 2.0 SW 13 17 7 9 1006.8 1006.8 1.4
25/04:30am 12.0 9.0 7.7 75 2.1 SSW 13 24 7 13 1006.6 1006.6 1.4
25/04:00am 11.8 8.3 8.8 82 1.5 SSW 17 24 9 13 1006.2 1006.2 1.4
25/03:30am 11.9 8.1 8.9 82 1.5 SSW 19 26 10 14 1005.9 1005.9 1.4
25/03:00am 11.8 8.8 7.9 77 1.9 S 13 19 7 10 1005.7 1005.7 1.4
25/02:30am 12.0 10.2 7.9 76 2.0 SSE 7 17 4 9 1005.6 1005.6 1.4
25/02:00am 12.1 11.8 8.5 78 1.8 CALM 0 4 0 2 1005.5 1005.5 1.4
25/01:30am 12.3 10.6 9.8 85 1.3 SSW 9 11 5 6 1005.3 1005.3 1.4
25/01:00am 12.4 9.5 9.7 83 1.4 S 15 19 8 10 1005.2 1005.2 1.4
25/12:30am 12.3 9.4 9.6 83 1.4 SSW 15 20 8 11 1005.0 1005.0 1.4
25/12:00am 12.5 8.9 9.8 83 1.4 S 19 26 10 14 1004.8 1004.8 1.4
 
Date/Time
EST
Tmp

°C
App
Tmp
°C
Dew
Point
°C
Rel
Hum
%
Delta-T

°C
Wind Press
QNH
hPa
Press
MSL
hPa
Rain
since
9 am
mm
Dir
 
Spd
km/h
Gust
km/h
Spd
kts
Gust
kts
24/11:30pm 12.1 9.7 10.0 87 1.1 S 13 15 7 8 1004.6 1004.6 1.4
24/11:00pm 12.6 9.0 9.9 83 1.4 S 19 24 10 13 1004.6 1004.6 1.4
24/10:30pm 12.9 9.2 10.0 82 1.5 S 20 28 11 15 1004.3 1004.3 1.4

Latest Capital City Observations: Canberra | Sydney | Melbourne | Brisbane | Adelaide | Perth | Hobart | Darwin

Other Formats:

Comma delimited format used in spreadsheet applications
http://www.bom.gov.au/fwo/IDT60901/IDT60901.94975.axf

JavaScript Object Notation format (JSON) in row-major order
http://www.bom.gov.au/fwo/IDT60901/IDT60901.94975.json